METAR Data
IDs: Format: Raw Decoded Include TAF

Data at: 1817 UTC 25 Mar 2019

KTME 251815Z AUTO 34004KT 9SM SCT025 BKN035 BKN047 26/20 A3013 RMK AO2
KTME 251755Z AUTO 33005KT 9SM FEW023 SCT027 OVC034 26/20 A3013 RMK AO2
KTME 251735Z AUTO 33005KT 9SM OVC026 25/20 A3014 RMK AO2
KTME 251715Z AUTO 00000KT 8SM BKN022 BKN032 BKN047 25/20 A3014 RMK AO2
KTME 251655Z AUTO 27003KT 9SM FEW019 25/20 A3014 RMK AO2
KTME 251635Z AUTO 28006KT 9SM FEW021 FEW026 25/20 A3014 RMK AO2
KTME 251615Z AUTO 27003KT 7SM BKN020 BKN026 BKN049 23/20 A3015 RMK AO2
KTME 251555Z AUTO 32005KT 8SM OVC020 22/20 A3016 RMK AO2
KTME 251535Z AUTO 00000KT 9SM OVC021 22/20 A3016 RMK AO2
KTME 251515Z AUTO 00000KT 7SM OVC021 22/20 A3016 RMK AO2
KTME 251455Z AUTO 00000KT 8SM 22/20 A3015 RMK AO2
KTME 251435Z AUTO 00000KT 8SM 21/20 A3014 RMK AO2
KTME 251415Z AUTO 00000KT 7SM 21/20 A3012 RMK AO2
KTME 251355Z AUTO 00000KT 6SM BR OVC019 21/20 A3012 RMK AO2
KTME 251335Z AUTO 00000KT 5SM BR FEW010 FEW014 OVC020 21/20 A3011 RMK AO2
KTME 251315Z AUTO 00000KT 5SM BR FEW010 SCT014 OVC021 21/20 A3010 RMK AO2
KTME 251255Z AUTO 00000KT 5SM BR SCT009 SCT015 OVC022 21/20 A3009 RMK AO2
KTME 251235Z AUTO 23004KT 6SM BR FEW009 SCT012 OVC020 21/20 A3008 RMK AO2
KTME 251215Z AUTO 23004KT 6SM BR SCT009 SCT013 OVC020 21/20 A3008 RMK AO2
KTME 251155Z AUTO 24004KT 6SM BR BKN009 OVC015 21/20 A3007 RMK AO2
KTME 251135Z AUTO 23005KT 8SM BKN009 OVC014 21/20 A3006 RMK AO2
KTME 251115Z AUTO 23008KT 8SM OVC009 21/20 A3006 RMK AO2
KTME 251055Z AUTO 23008KT 8SM OVC008 21/20 A3005 RMK AO2
KTME 251035Z AUTO 22008KT 8SM OVC007 21/20 A3005 RMK AO2
KTME 251015Z AUTO 23008G14KT 7SM OVC007 21/20 A3005 RMK AO2
KTME 250955Z AUTO 23009KT 8SM OVC009 21/20 A3004 RMK AO2
KTME 250935Z AUTO 22010KT 7SM OVC009 21/20 A3004 RMK AO2
KTME 250915Z AUTO 22009KT 7SM OVC009 21/20 A3004 RMK AO2
KTME 250855Z AUTO 21008KT 7SM BKN009 OVC013 20/20 A3005 RMK AO2
KTME 250835Z AUTO 21007KT 6SM BR OVC012 20/20 A3005 RMK AO2
KTME 250815Z AUTO 20009KT 6SM BR BKN012 OVC045 20/20 A3005 RMK AO2
KTME 250755Z AUTO 19006KT 6SM BR FEW013 OVC045 20/20 A3007 RMK AO2
KTME 250735Z AUTO 19005G11KT 7SM OVC045 20/20 A3007 RMK AO2
KTME 250715Z AUTO 20007KT 7SM OVC043 20/20 A3008 RMK AO2
KTME 250655Z AUTO 19006KT 6SM BR FEW007 OVC044 20/20 A3009 RMK AO2
KTME 250635Z AUTO 22004KT 7SM BKN009 OVC045 20/20 A3009 RMK AO2
KTME 250615Z AUTO 20005KT 7SM OVC010 20/20 A3009 RMK AO2
KTME 250555Z AUTO 19004KT 6SM BR BKN009 OVC012 20/20 A3009 RMK AO2
KTME 250535Z AUTO 17004KT 6SM BR OVC008 20/20 A3009 RMK AO2
KTME 250515Z AUTO 00000KT 6SM BR OVC008 19/19 A3009 RMK AO2
KTME 250455Z AUTO 17005KT 7SM BKN008 BKN045 19/19 A3008 RMK AO2
KTME 250435Z AUTO 17004KT 6SM BR SCT009 19/19 A3008 RMK AO2
KTME 250415Z AUTO 17004KT 7SM CLR 19/19 A3008 RMK AO2
KTME 250355Z AUTO 17005KT 8SM CLR 19/19 A3008 RMK AO2
KTME 250335Z AUTO 17006KT 7SM CLR 19/19 A3008 RMK AO2
KTME 250315Z AUTO 17005KT 8SM CLR 19/19 A3007 RMK AO2
KTME 250255Z AUTO 17005KT 9SM BKN028 BKN048 20/19 A3007 RMK AO2
KTME 250235Z AUTO 18005KT 10SM OVC027 20/19 A3006 RMK AO2
KTME 250215Z AUTO 17006KT 10SM BKN027 OVC033 20/19 A3005 RMK AO2
KTME 250155Z AUTO 19006KT 9SM BKN030 BKN035 OVC047 21/19 A3005 RMK AO2
KTME 250135Z AUTO 19007KT 10SM BKN029 BKN033 OVC042 21/19 A3004 RMK AO2
KTME 250115Z AUTO 19008KT 9SM BKN030 BKN040 OVC045 22/19 A3004 RMK AO2
KTME 250055Z AUTO 19009G14KT 9SM SCT029 22/19 A3003 RMK AO2
KTME 250035Z AUTO 19011KT 9SM FEW055 23/19 A3003 RMK AO2
KTME 250015Z AUTO 18010G16KT 9SM BKN055 24/19 A3003 RMK AO2
KTME 242355Z AUTO 19014KT 9SM OVC055 25/19 A3003 RMK AO2
KTME 242335Z AUTO 18009KT 9SM OVC055 25/19 A3003 RMK AO2
KTME 242315Z AUTO 19013KT 9SM OVC060 25/19 A3004 RMK AO2
KTME 242255Z AUTO 19011G16KT 9SM OVC060 26/19 A3003 RMK AO2
KTME 242235Z AUTO 19014KT 9SM OVC060 26/19 A3003 RMK AO2
KTME 242215Z AUTO 19013KT 9SM BKN060 26/19 A3003 RMK AO2
KTME 242155Z AUTO 20013KT 10SM FEW034 FEW046 BKN060 28/19 A3004 RMK AO2
KTME 242135Z AUTO 20013KT 9SM FEW034 BKN050 OVC060 27/19 A3004 RMK AO2
KTME 242115Z AUTO 20010G16KT 9SM FEW035 SCT050 BKN060 27/19 A3005 RMK AO2
KTME 242055Z AUTO 19012KT 9SM FEW035 FEW046 BKN060 27/19 A3005 RMK AO2
KTME 242035Z AUTO 20012KT 10SM FEW050 BKN060 27/19 A3005 RMK AO2
KTME 242015Z AUTO 18012KT 10SM FEW035 BKN055 27/18 A3006 RMK AO2
KTME 241955Z AUTO 19011G18KT 9SM FEW040 FEW048 BKN055 28/18 A3006 RMK AO2
KTME 241935Z AUTO 17010KT 9SM FEW040 FEW048 OVC055 27/18 A3006 RMK AO2
KTME 241915Z AUTO 17009KT 9SM FEW039 OVC055 27/18 A3007 RMK AO2
KTME 241855Z AUTO 16011G16KT 9SM SCT037 BKN049 OVC055 27/18 A3009 RMK AO2
KTME 241835Z AUTO 20005G10KT 9SM SCT031 SCT040 OVC050 26/19 A3010 RMK AO2
KTME 241815Z AUTO 19011KT 8SM 25/19 A3010 RMK AO2
KTME 241755Z AUTO 21007KT 9SM 25/19 A3011 RMK AO2
KTME 241735Z AUTO 19009KT 160V220 9SM FEW022 SCT028 BKN042 26/19 A3012 RMK AO2
KTME 241715Z AUTO 20009KT 9SM FEW020 SCT025 BKN031 24/19 A3013 RMK AO2
KTME 241655Z AUTO 18009KT 9SM BKN019 BKN023 OVC036 24/19 A3013 RMK AO2
KTME 241635Z AUTO 19010KT 8SM BKN017 OVC024 24/19 A3013 RMK AO2
KTME 241615Z AUTO 19008KT 9SM BKN017 BKN022 OVC038 23/19 A3014 RMK AO2
KTME 241555Z AUTO 19009KT 8SM BKN016 BKN020 OVC025 23/19 A3014 RMK AO2
KTME 241535Z AUTO 18008KT 8SM SCT014 BKN020 OVC036 23/19 A3014 RMK AO2
KTME 241515Z AUTO 19009KT 8SM FEW012 SCT021 BKN025 22/19 A3014 RMK AO2
KTME 241455Z AUTO 18010KT 8SM SCT022 BKN028 OVC034 21/19 A3014 RMK AO2
KTME 241435Z AUTO 18009KT 7SM SCT021 21/19 A3014 RMK AO2
KTME 241415Z AUTO 17007KT 7SM FEW023 FEW030 20/19 A3013 RMK AO2
KTME 241355Z AUTO 16007KT 7SM BKN023 BKN030 BKN038 19/19 A3012 RMK AO2
KTME 241335Z AUTO 16006KT 5SM BR SCT027 OVC039 19/18 A3011 RMK AO2
KTME 241315Z AUTO 15006KT 5SM BR SCT029 OVC040 18/18 A3011 RMK AO2
KTME 241255Z AUTO 16005KT 5SM BR SCT013 SCT017 OVC041 18/18 A3011 RMK AO2
KTME 241235Z AUTO 14005KT 6SM BR BKN013 BKN019 OVC031 18/18 A3012 RMK AO2
KTME 241215Z AUTO 15004KT 6SM BR BKN014 BKN022 OVC032 18/18 A3012 RMK AO2
KTME 241155Z AUTO 14003KT 6SM BR BKN015 OVC035 17/17 A3011 RMK AO2
KTME 241135Z AUTO 14004KT 6SM BR SCT015 BKN037 OVC060 17/17 A3011 RMK AO2
KTME 241115Z AUTO 14005KT 7SM FEW042 FEW048 OVC060 17/17 A3010 RMK AO2
KTME 241055Z AUTO 13004KT 6SM BR FEW016 BKN043 OVC060 17/17 A3010 RMK AO2
KTME 241035Z AUTO 00000KT 6SM BR SCT017 BKN044 OVC060 17/17 A3010 RMK AO2
KTME 241015Z AUTO 00000KT 5SM BR BKN018 OVC060 16/16 A3010 RMK AO2
KTME 240955Z AUTO 00000KT 6SM BR OVC060 16/16 A3010 RMK AO2
KTME 240935Z AUTO 00000KT 6SM BR FEW034 BKN065 16/16 A3010 RMK AO2
KTME 240915Z AUTO 00000KT 6SM BR SCT025 BKN034 BKN060 16/16 A3009 RMK AO2
KTME 240855Z AUTO 11004KT 7SM OVC026 16/16 A3009 RMK AO2
KTME 240835Z AUTO 00000KT 7SM OVC026 16/16 A3009 RMK AO2
KTME 240815Z AUTO 00000KT 7SM OVC026 16/16 A3010 RMK AO2
KTME 240755Z AUTO 00000KT 8SM SCT028 SCT035 BKN065 16/16 A3010 RMK AO2
KTME 240735Z AUTO 00000KT 7SM FEW031 OVC065 16/16 A3010 RMK AO2
KTME 240715Z AUTO 00000KT 8SM FEW026 SCT030 BKN065 16/15 A3011 RMK AO2
KTME 240655Z AUTO 00000KT 9SM BKN029 BKN033 BKN060 16/15 A3011 RMK AO2
KTME 240635Z AUTO 00000KT 9SM BKN029 BKN035 BKN060 16/16 A3011 RMK AO2